ESMT/HAD METAR and TAF weather

Enter ICAO airport designator
Station Type Date Time Source
ESMT METAR 2018/01/23 01:20 UTC NOAA

ESMT 230120Z AUTO 12005KT 8000 BR NCD M01/M03 Q1017


Station Type Date Time Source
ESMT Decoded METAR 2018/01/23 01:20 UTC NOAA

Halmstad Swedish Air Force Base , Sweden (ESMT) 56-41N 012-50E
Jan 22, 2018 - 08:20 PM EST / 2018.01.23 0120 UTC
Wind: from the ESE (120 degrees) at 6 MPH (5 KT):0
Visibility: 4 mile(s):0
Weather: mist
Temperature: 30 F (-1 C)
Windchill: 23 F (-5 C):1
Dew Point: 26 F (-3 C)
Relative Humidity: 86%
Pressure (altimeter): 30.03 in. Hg (1017 hPa)
ob: ESMT 230120Z AUTO 12005KT 8000 BR NCD M01/M03 Q1017
cycle: 1

Station Type Date Time Source
ESMT TAF 2017/04/24 06:33 UTC NOAA

TAF TAF ESMT 240513Z 2406/2506 22018KT 9999 BKN018
TEMPO 2406/2413 22018G30KT 4000 RADZ BKN008
TEMPO 2413/2415 24020G30KT 4000 SHRA BKN014 SCT020CB


Example: see airport list